TMX weather

Timimoun Airport
Timimoun, Adrar Province, Algeria

Public forecast

Using degrees Celsius for public forecast. Weather courtesy of forecast.io.

METAR (pilot weather report)

Retrieved 2019/07/21 07:00 UTC (44 minutes ago):

DAUT 210700Z 05005KT 9999 FEW046 SCT120 33/05 Q1014

TAF (pilot weather forecast)

Forecast is more than 12 hours old.

Retrieved 2017/11/09 18:03 UTC (2 years ago):

TAF DAUT 091700Z 0918/1009 22012KT CAVOK